Time,TemperatureF,DewpointF,PressureIn,WindDirection,WindDirectionDegrees,WindSpeedMPH,WindSpeedGustMPH,Humidity,HourlyPrecipIn,Conditions,Clouds,dailyrainin,SoftwareType,DateUTC
2013-08-13 00:14:00,61.0,51.9,30.14,East,90,0.0,0.0,72,0.00,,,-99.99,Weather View 32 v60,2013-08-13 05:14:00,
2013-08-13 00:29:00,60.0,50.5,30.14,East,90,0.0,0.0,71,0.00,,,-99.99,Weather View 32 v60,2013-08-13 05:29:00,
2013-08-13 00:44:00,60.0,49.8,30.14,East,90,0.0,0.0,69,0.00,,,-99.99,Weather View 32 v60,2013-08-13 05:44:00,
2013-08-13 00:59:00,60.0,49.0,30.14,East,90,0.0,0.0,67,0.00,,,-99.99,Weather View 32 v60,2013-08-13 05:59:00,
2013-08-13 01:14:00,59.0,47.6,30.15,East,90,0.0,0.0,66,0.00,,,-99.99,Weather View 32 v60,2013-08-13 06:14:00,
2013-08-13 01:29:00,59.0,47.6,30.15,East,90,0.0,0.0,66,0.00,,,-99.99,Weather View 32 v60,2013-08-13 06:29:00,
2013-08-13 01:44:00,58.0,45.9,30.15,East,90,0.0,0.0,64,0.00,,,-99.99,Weather View 32 v60,2013-08-13 06:44:00,
2013-08-13 01:59:00,58.0,46.7,30.16,East,90,0.0,0.0,66,0.00,,,-99.99,Weather View 32 v60,2013-08-13 06:59:00,
2013-08-13 02:14:00,58.0,46.7,30.16,East,90,0.0,0.0,66,0.00,,,-99.99,Weather View 32 v60,2013-08-13 07:14:00,
2013-08-13 02:29:00,57.0,45.7,30.16,East,90,0.0,0.0,66,0.00,,,-99.99,Weather View 32 v60,2013-08-13 07:29:00,
2013-08-13 02:44:00,57.0,45.3,30.16,East,90,0.0,0.0,65,0.00,,,-99.99,Weather View 32 v60,2013-08-13 07:44:00,
2013-08-13 02:59:00,56.0,44.4,30.16,East,90,0.0,0.0,65,0.00,,,-99.99,Weather View 32 v60,2013-08-13 07:59:00,
2013-08-13 03:05:00,56.0,44.4,30.16,East,90,0.0,0.0,65,0.00,,,-99.99,Weather View 32 v60,2013-08-13 08:05:00,
2013-08-13 03:14:00,56.0,44.0,30.17,East,90,0.0,0.0,64,0.00,,,-99.99,Weather View 32 v60,2013-08-13 08:14:00,
2013-08-13 03:29:00,56.0,44.0,30.18,East,90,0.0,0.0,64,0.00,,,-99.99,Weather View 32 v60,2013-08-13 08:29:00,
2013-08-13 03:44:00,55.0,43.8,30.18,East,90,0.0,0.0,66,0.00,,,-99.99,Weather View 32 v60,2013-08-13 08:44:00,
2013-08-13 03:59:00,55.0,43.4,30.18,East,90,0.0,0.0,65,0.00,,,-99.99,Weather View 32 v60,2013-08-13 08:59:00,
2013-08-13 04:05:00,55.0,43.4,30.18,East,90,0.0,0.0,65,0.00,,,-99.99,Weather View 32 v60,2013-08-13 09:05:00,
2013-08-13 04:14:00,54.0,42.9,30.18,East,90,0.0,0.0,66,0.00,,,-99.99,Weather View 32 v60,2013-08-13 09:14:00,
2013-08-13 04:29:00,53.0,41.5,30.18,East,90,0.0,0.0,65,0.00,,,-99.99,Weather View 32 v60,2013-08-13 09:29:00,
2013-08-13 04:44:00,53.0,41.5,30.18,East,90,0.0,0.0,65,0.00,,,-99.99,Weather View 32 v60,2013-08-13 09:44:00,
2013-08-13 04:59:00,53.0,41.5,30.19,East,90,0.0,0.0,65,0.00,,,-99.99,Weather View 32 v60,2013-08-13 09:59:00,
2013-08-13 05:06:00,53.0,41.5,30.19,East,90,0.0,0.0,65,0.00,,,-99.99,Weather View 32 v60,2013-08-13 10:06:00,
2013-08-13 05:14:00,53.0,41.5,30.18,East,90,0.0,0.0,65,0.00,,,-99.99,Weather View 32 v60,2013-08-13 10:14:00,
2013-08-13 05:29:00,53.0,41.5,30.18,East,90,0.0,0.0,65,0.00,,,-99.99,Weather View 32 v60,2013-08-13 10:29:00,
2013-08-13 05:44:00,53.0,41.9,30.18,North,360,0.0,0.0,66,0.00,,,-99.99,Weather View 32 v60,2013-08-13 10:44:00,
2013-08-13 05:59:00,53.0,41.5,30.18,North,360,0.0,0.0,65,0.00,,,-99.99,Weather View 32 v60,2013-08-13 10:59:00,
2013-08-13 06:07:00,53.0,41.5,30.18,North,360,0.0,0.0,65,0.00,,,-99.99,Weather View 32 v60,2013-08-13 11:07:00,
2013-08-13 06:14:00,53.0,41.9,30.19,North,360,0.0,0.0,66,0.00,,,-99.99,Weather View 32 v60,2013-08-13 11:14:00,
2013-08-13 06:29:00,53.0,41.9,30.19,North,360,0.0,0.0,66,0.00,,,-99.99,Weather View 32 v60,2013-08-13 11:29:00,
2013-08-13 06:44:00,53.0,41.5,30.20,North,360,0.0,0.0,65,0.00,,,-99.99,Weather View 32 v60,2013-08-13 11:44:00,
2013-08-13 06:59:00,52.0,40.6,30.20,North,360,0.0,0.0,65,0.00,,,-99.99,Weather View 32 v60,2013-08-13 11:59:00,
2013-08-13 07:07:00,52.0,40.6,30.20,North,360,0.0,0.0,65,0.00,,,-99.99,Weather View 32 v60,2013-08-13 12:07:00,
2013-08-13 07:14:00,53.0,41.5,30.20,North,360,0.0,0.0,65,0.00,,,-99.99,Weather View 32 v60,2013-08-13 12:14:00,
2013-08-13 07:29:00,53.0,41.5,30.20,North,360,0.0,0.0,65,0.00,,,-99.99,Weather View 32 v60,2013-08-13 12:29:00,
2013-08-13 07:44:00,54.0,42.1,30.20,ENE,67,0.0,0.0,64,0.00,,,-99.99,Weather View 32 v60,2013-08-13 12:44:00,
2013-08-13 07:59:00,56.0,44.0,30.20,East,90,0.0,0.0,64,0.00,,,-99.99,Weather View 32 v60,2013-08-13 12:59:00,
2013-08-13 08:08:00,56.0,44.0,30.20,East,90,0.0,0.0,64,0.00,,,-99.99,Weather View 32 v60,2013-08-13 13:08:00,
2013-08-13 08:14:00,57.0,44.5,30.19,East,90,0.0,0.0,63,0.00,,,-99.99,Weather View 32 v60,2013-08-13 13:14:00,
2013-08-13 08:29:00,58.0,45.4,30.20,East,90,0.0,0.0,63,0.00,,,-99.99,Weather View 32 v60,2013-08-13 13:29:00,
2013-08-13 08:44:00,60.0,47.3,30.19,East,90,0.0,0.0,63,0.00,,,-99.99,Weather View 32 v60,2013-08-13 13:44:00,
2013-08-13 08:59:00,62.0,49.2,30.18,East,90,0.0,0.0,63,0.00,,,-99.99,Weather View 32 v60,2013-08-13 13:59:00,
2013-08-13 09:08:00,62.0,49.2,30.18,East,90,0.0,0.0,63,0.00,,,-99.99,Weather View 32 v60,2013-08-13 14:08:00,
2013-08-13 09:14:00,64.0,57.0,30.17,East,90,0.0,0.0,78,0.00,,,-99.99,Weather View 32 v60,2013-08-13 14:14:00,
2013-08-13 09:29:00,66.0,60.0,30.17,ENE,67,0.0,0.0,81,0.00,,,-99.99,Weather View 32 v60,2013-08-13 14:29:00,
2013-08-13 09:44:00,69.0,61.8,30.15,East,90,0.0,0.0,78,0.00,,,-99.99,Weather View 32 v60,2013-08-13 14:44:00,
2013-08-13 09:59:00,71.0,64.1,30.15,East,90,0.0,4.0,79,0.00,,,-99.99,Weather View 32 v60,2013-08-13 14:59:00,
2013-08-13 10:09:00,71.0,64.1,30.15,East,90,0.0,4.0,79,0.00,,,-99.99,Weather View 32 v60,2013-08-13 15:09:00,
2013-08-13 10:14:00,73.0,62.6,30.14,SE,135,0.0,6.0,70,0.00,,,-99.99,Weather View 32 v60,2013-08-13 15:14:00,
2013-08-13 10:29:00,75.0,61.1,30.14,NW,315,0.0,6.0,62,0.00,,,-99.99,Weather View 32 v60,2013-08-13 15:29:00,
2013-08-13 10:44:00,75.0,60.1,30.14,East,90,2.0,7.0,60,0.00,,,-99.99,Weather View 32 v60,2013-08-13 15:44:00,
2013-08-13 10:59:00,76.0,62.0,30.14,North,360,0.0,7.0,62,0.00,,,-99.99,Weather View 32 v60,2013-08-13 15:59:00,
2013-08-13 11:09:00,76.0,62.0,30.14,North,360,0.0,7.0,62,0.00,,,-99.99,Weather View 32 v60,2013-08-13 16:09:00,
2013-08-13 11:29:00,76.0,62.0,30.14,ENE,67,0.0,7.0,62,0.00,,,-99.99,Weather View 32 v60,2013-08-13 16:29:00,
2013-08-13 11:44:00,78.0,61.5,30.14,ENE,67,0.0,7.0,57,0.00,,,-99.99,Weather View 32 v60,2013-08-13 16:44:00,
2013-08-13 11:59:00,80.0,61.8,30.12,East,90,0.0,7.0,54,0.00,,,-99.99,Weather View 32 v60,2013-08-13 16:59:00,
2013-08-13 12:14:00,79.0,60.3,30.12,ESE,112,0.0,7.0,53,0.00,,,-99.99,Weather View 32 v60,2013-08-13 17:14:00,
2013-08-13 12:29:00,79.0,61.9,30.12,ENE,67,0.0,7.0,56,0.00,,,-99.99,Weather View 32 v60,2013-08-13 17:29:00,
2013-08-13 12:44:00,79.0,60.9,30.12,NE,45,0.0,5.0,54,0.00,,,-99.99,Weather View 32 v60,2013-08-13 17:44:00,
2013-08-13 12:59:00,79.0,60.3,30.12,NE,45,0.0,5.0,53,0.00,,,-99.99,Weather View 32 v60,2013-08-13 17:59:00,
2013-08-13 13:10:00,79.0,60.3,30.12,NE,45,0.0,5.0,53,0.00,,,-99.99,Weather View 32 v60,2013-08-13 18:10:00,
2013-08-13 13:29:00,79.0,61.4,30.12,NE,45,0.0,7.0,55,0.00,,,-99.99,Weather View 32 v60,2013-08-13 18:29:00,
2013-08-13 13:44:00,80.0,61.8,30.10,East,90,0.0,7.0,54,0.00,,,-99.99,Weather View 32 v60,2013-08-13 18:44:00,
2013-08-13 13:59:00,79.0,59.8,30.11,ESE,112,0.0,10.0,52,0.00,,,-99.99,Weather View 32 v60,2013-08-13 18:59:00,
2013-08-13 14:11:00,79.0,59.8,30.11,ESE,112,0.0,10.0,52,0.00,,,-99.99,Weather View 32 v60,2013-08-13 19:11:00,
2013-08-13 14:29:00,80.0,59.1,30.10,NW,315,4.0,10.0,49,0.00,,,-99.99,Weather View 32 v60,2013-08-13 19:29:00,
2013-08-13 14:44:00,77.0,60.5,30.12,ESE,112,8.0,10.0,57,0.00,,,-99.99,Weather View 32 v60,2013-08-13 19:44:00,
2013-08-13 14:59:00,79.0,59.8,30.10,ENE,67,0.0,10.0,52,0.00,,,-99.99,Weather View 32 v60,2013-08-13 19:59:00,
2013-08-13 15:12:00,79.0,59.8,30.10,ENE,67,0.0,10.0,52,0.00,,,-99.99,Weather View 32 v60,2013-08-13 20:12:00,
2013-08-13 15:29:00,80.0,59.1,30.10,East,90,0.0,10.0,49,0.00,,,-99.99,Weather View 32 v60,2013-08-13 20:29:00,
2013-08-13 15:44:00,78.0,58.3,30.10,East,90,0.0,10.0,51,0.00,,,-99.99,Weather View 32 v60,2013-08-13 20:44:00,
2013-08-13 15:59:00,82.0,60.9,30.08,ESE,112,0.0,9.0,49,0.00,,,-99.99,Weather View 32 v60,2013-08-13 20:59:00,
2013-08-13 16:12:00,82.0,60.9,30.08,ESE,112,0.0,9.0,49,0.00,,,-99.99,Weather View 32 v60,2013-08-13 21:12:00,
2013-08-13 16:29:00,80.0,61.3,30.09,NE,45,0.0,10.0,53,0.00,,,-99.99,Weather View 32 v60,2013-08-13 21:29:00,
2013-08-13 16:44:00,78.0,57.8,30.10,SSW,202,0.0,10.0,50,0.00,,,-99.99,Weather View 32 v60,2013-08-13 21:44:00,
2013-08-13 16:59:00,79.0,59.3,30.09,East,90,6.0,10.0,51,0.00,,,-99.99,Weather View 32 v60,2013-08-13 21:59:00,
2013-08-13 17:13:00,79.0,59.3,30.09,East,90,6.0,10.0,51,0.00,,,-99.99,Weather View 32 v60,2013-08-13 22:13:00,
2013-08-13 17:29:00,77.0,59.5,30.09,ESE,112,1.0,9.0,55,0.00,,,-99.99,Weather View 32 v60,2013-08-13 22:29:00,
2013-08-13 17:44:00,76.0,60.1,30.10,NNW,337,0.0,10.0,58,0.00,,,-99.99,Weather View 32 v60,2013-08-13 22:44:00,
2013-08-13 17:59:00,76.0,57.6,30.10,NNE,22,0.0,10.0,53,0.00,,,-99.99,Weather View 32 v60,2013-08-13 22:59:00,
2013-08-13 18:13:00,76.0,57.6,30.10,NNE,22,0.0,10.0,53,0.00,,,-99.99,Weather View 32 v60,2013-08-13 23:13:00,
2013-08-13 18:29:00,75.0,58.2,30.10,East,90,0.0,10.0,56,0.00,,,-99.99,Weather View 32 v60,2013-08-13 23:29:00,
2013-08-13 18:44:00,74.0,59.2,30.10,East,90,0.0,8.0,60,0.00,,,-99.99,Weather View 32 v60,2013-08-13 23:44:00,
2013-08-13 18:59:00,73.0,58.2,30.09,East,90,0.0,7.0,60,0.00,,,-99.99,Weather View 32 v60,2013-08-13 23:59:00,
2013-08-13 19:14:00,73.0,58.2,30.09,East,90,0.0,7.0,60,0.00,,,-99.99,Weather View 32 v60,2013-08-14 00:14:00,
2013-08-13 19:29:00,73.0,58.7,30.10,ENE,67,0.0,7.0,61,0.00,,,-99.99,Weather View 32 v60,2013-08-14 00:29:00,
2013-08-13 19:44:00,72.0,58.7,30.11,East,90,4.0,8.0,63,0.00,,,-99.99,Weather View 32 v60,2013-08-14 00:44:00,
2013-08-13 19:59:00,71.0,58.6,30.12,East,90,0.0,8.0,65,0.00,,,-99.99,Weather View 32 v60,2013-08-14 00:59:00,
2013-08-13 20:15:00,70.0,58.1,30.12,East,90,0.0,8.0,66,0.00,,,-99.99,Weather View 32 v60,2013-08-14 01:15:00,
2013-08-13 20:29:00,69.0,58.4,30.13,ESE,112,0.0,8.0,69,0.00,,,-99.99,Weather View 32 v60,2013-08-14 01:29:00,
2013-08-13 20:44:00,67.0,56.9,30.14,ESE,112,0.0,8.0,70,0.00,,,-99.99,Weather View 32 v60,2013-08-14 01:44:00,
2013-08-13 20:59:00,66.0,58.6,30.16,ESE,112,0.0,5.0,77,0.00,,,-99.99,Weather View 32 v60,2013-08-14 01:59:00,
2013-08-13 21:14:00,65.0,58.3,30.16,ESE,112,0.0,4.0,79,0.00,,,-99.99,Weather View 32 v60,2013-08-14 02:14:00,
2013-08-13 21:29:00,64.0,58.4,30.16,ESE,112,0.0,0.0,82,0.00,,,-99.99,Weather View 32 v60,2013-08-14 02:29:00,
2013-08-13 21:44:00,63.0,57.4,30.17,ESE,112,0.0,0.0,82,0.00,,,-99.99,Weather View 32 v60,2013-08-14 02:44:00,
2013-08-13 21:59:00,63.0,57.4,30.17,ESE,112,0.0,0.0,82,0.00,,,-99.99,Weather View 32 v60,2013-08-14 02:59:00,
2013-08-13 22:14:00,62.0,56.4,30.18,ESE,112,0.0,0.0,82,0.00,,,-99.99,Weather View 32 v60,2013-08-14 03:14:00,
2013-08-13 22:29:00,60.0,54.1,30.18,ESE,112,0.0,0.0,81,0.00,,,-99.99,Weather View 32 v60,2013-08-14 03:29:00,
2013-08-13 22:44:00,59.0,52.8,30.19,ESE,112,0.0,0.0,80,0.00,,,-99.99,Weather View 32 v60,2013-08-14 03:44:00,
2013-08-13 22:59:00,59.0,51.4,30.20,ESE,112,0.0,0.0,76,0.00,,,-99.99,Weather View 32 v60,2013-08-14 03:59:00,
2013-08-13 23:14:00,58.0,49.7,30.20,ESE,112,0.0,0.0,74,0.00,,,-99.99,Weather View 32 v60,2013-08-14 04:14:00,
2013-08-13 23:16:00,58.0,49.7,30.20,ESE,112,0.0,0.0,74,0.00,,,-99.99,Weather View 32 v60,2013-08-14 04:16:00,
2013-08-13 23:29:00,57.0,48.0,30.21,ESE,112,0.0,0.0,72,0.00,,,-99.99,Weather View 32 v60,2013-08-14 04:29:00,
2013-08-13 23:44:00,57.0,48.0,30.21,ESE,112,0.0,0.0,72,0.00,,,-99.99,Weather View 32 v60,2013-08-14 04:44:00,
2013-08-13 23:59:00,56.0,47.1,30.21,ESE,112,0.0,0.0,72,0.00,,,-99.99,Weather View 32 v60,2013-08-14 04:59:00,